createdAt,value
2022-09-22T00:01:39.654Z,10.87
2022-09-22T00:04:13.148Z,10.70
2022-09-22T00:06:43.657Z,9.53
2022-09-22T00:09:15.178Z,9.53
2022-09-22T00:11:45.362Z,6.87
2022-09-22T00:14:16.207Z,6.90
2022-09-22T00:16:47.933Z,6.37
2022-09-22T00:19:19.133Z,9.50
2022-09-22T00:21:49.232Z,9.97
2022-09-22T00:24:18.871Z,10.83
2022-09-22T00:26:47.453Z,12.13
2022-09-22T00:29:17.344Z,15.20
2022-09-22T00:31:47.281Z,13.37
2022-09-22T00:34:17.080Z,7.10
2022-09-22T00:36:46.282Z,7.67
2022-09-22T00:39:15.731Z,9.40
2022-09-22T00:41:46.140Z,9.67
2022-09-22T00:44:40.295Z,9.40
2022-09-22T00:47:20.464Z,7.27
2022-09-22T00:49:53.096Z,10.47
2022-09-22T00:52:26.597Z,6.83
2022-09-22T00:54:58.436Z,10.10
2022-09-22T00:57:29.916Z,12.57
2022-09-22T00:59:58.788Z,8.23
2022-09-22T01:02:28.607Z,8.27
2022-09-22T01:04:56.917Z,7.63
2022-09-22T01:07:29.506Z,6.37
2022-09-22T01:09:59.185Z,8.73
2022-09-22T01:12:30.956Z,9.53
2022-09-22T01:15:26.227Z,8.73
2022-09-22T01:18:12.810Z,7.20
2022-09-22T01:21:10.774Z,9.43
2022-09-22T01:24:11.818Z,16.80
2022-09-22T01:27:01.778Z,6.60
2022-09-22T01:30:08.779Z,7.27
2022-09-22T01:32:46.151Z,8.03
2022-09-22T01:35:20.667Z,7.10
2022-09-22T01:37:59.734Z,8.00
2022-09-22T01:40:35.639Z,10.67
2022-09-22T01:43:14.431Z,9.77
2022-09-22T01:45:46.584Z,6.47
2022-09-22T01:48:21.190Z,12.50
2022-09-22T01:50:55.266Z,7.87
2022-09-22T01:53:32.064Z,12.77
2022-09-22T01:56:06.391Z,8.23
2022-09-22T01:58:40.553Z,8.97
2022-09-22T02:01:14.650Z,10.03
2022-09-22T02:03:50.660Z,7.87
2022-09-22T02:06:24.263Z,8.07
2022-09-22T02:08:57.857Z,15.57
2022-09-22T02:11:26.522Z,11.67
2022-09-22T02:13:56.572Z,7.23
2022-09-22T02:16:27.777Z,8.70
2022-09-22T02:19:12.062Z,6.97
2022-09-22T02:21:42.918Z,8.77
2022-09-22T02:24:28.357Z,7.20
2022-09-22T02:26:58.772Z,8.60
2022-09-22T02:29:31.339Z,9.50
2022-09-22T02:32:02.400Z,6.87
2022-09-22T02:34:32.253Z,8.47
2022-09-22T02:37:08.320Z,8.73
2022-09-22T02:39:42.238Z,8.43
2022-09-22T02:42:23.594Z,5.57
2022-09-22T02:44:57.584Z,5.87
2022-09-22T02:47:32.502Z,7.37
2022-09-22T02:50:06.628Z,8.60
2022-09-22T02:52:35.210Z,6.60
2022-09-22T02:55:03.605Z,7.80
2022-09-22T02:57:31.909Z,7.50
2022-09-22T03:00:00.337Z,10.67
2022-09-22T03:02:28.680Z,7.63
2022-09-22T03:04:57.873Z,14.50
2022-09-22T03:07:27.775Z,8.80
2022-09-22T03:09:56.120Z,8.60
2022-09-22T03:12:24.628Z,8.07
2022-09-22T03:14:53.028Z,8.37
2022-09-22T03:17:21.460Z,7.23
2022-09-22T03:19:49.719Z,6.13
2022-09-22T03:22:18.165Z,6.97
2022-09-22T03:24:47.799Z,8.97
2022-09-22T03:27:16.448Z,9.33
2022-09-22T03:29:45.021Z,11.23
2022-09-22T03:32:13.475Z,6.47
2022-09-22T03:34:41.740Z,8.10
2022-09-22T03:37:10.049Z,12.93
2022-09-22T03:39:38.341Z,7.67
2022-09-22T03:42:08.567Z,11.83
2022-09-22T03:44:37.106Z,10.43
2022-09-22T03:47:05.963Z,9.93
2022-09-22T03:49:36.962Z,8.23
2022-09-22T03:52:05.239Z,8.60
2022-09-22T03:54:35.257Z,8.67
2022-09-22T03:57:03.740Z,10.47
2022-09-22T03:59:33.401Z,6.20
2022-09-22T04:02:02.851Z,12.80
2022-09-22T04:04:31.394Z,10.70
2022-09-22T04:07:04.726Z,12.33
2022-09-22T04:09:35.417Z,11.73
2022-09-22T04:12:04.219Z,8.33
2022-09-22T04:14:34.463Z,9.20
2022-09-22T04:17:05.354Z,7.77
2022-09-22T04:19:36.048Z,7.20
2022-09-22T04:22:04.662Z,9.03
2022-09-22T04:24:33.169Z,13.73
2022-09-22T04:27:19.167Z,9.10
2022-09-22T04:29:50.380Z,6.80
2022-09-22T04:32:19.683Z,8.90
2022-09-22T04:34:48.477Z,9.13
2022-09-22T04:37:16.992Z,7.67
2022-09-22T04:39:45.296Z,6.30
2022-09-22T04:42:13.731Z,7.40
2022-09-22T04:44:42.066Z,9.80
2022-09-22T04:47:11.801Z,10.77
2022-09-22T04:49:40.634Z,7.17
2022-09-22T04:52:09.837Z,7.60
2022-09-22T04:54:38.073Z,7.50
2022-09-22T04:57:06.746Z,6.63
2022-09-22T04:59:38.117Z,11.77
2022-09-22T05:02:06.518Z,7.90
2022-09-22T05:04:36.213Z,8.60
2022-09-22T05:07:04.708Z,7.67
2022-09-22T05:09:33.302Z,8.83
2022-09-22T05:12:01.605Z,9.23
2022-09-22T05:14:31.047Z,7.93
2022-09-22T05:16:59.345Z,6.30
2022-09-22T05:19:27.664Z,5.77
2022-09-22T05:21:57.421Z,8.63
2022-09-22T05:24:28.434Z,10.73
2022-09-22T05:26:56.728Z,15.60
2022-09-22T05:29:27.919Z,9.40
2022-09-22T05:31:56.600Z,13.10
2022-09-22T05:34:25.049Z,8.63
2022-09-22T05:36:53.255Z,11.83
2022-09-22T05:39:22.921Z,13.10
2022-09-22T05:41:51.437Z,8.63
2022-09-22T05:44:19.676Z,11.50
2022-09-22T05:46:47.952Z,13.43
2022-09-22T05:49:16.480Z,10.43
2022-09-22T05:51:44.809Z,12.37
2022-09-22T05:54:14.115Z,11.43
2022-09-22T05:56:43.881Z,11.70
2022-09-22T05:59:12.335Z,14.00
2022-09-22T06:01:40.609Z,13.80
2022-09-22T06:04:08.986Z,14.60
2022-09-22T06:06:37.405Z,13.67
2022-09-22T06:09:05.867Z,10.67
2022-09-22T06:11:37.019Z,14.97
2022-09-22T06:14:06.772Z,15.80
2022-09-22T06:16:35.133Z,12.20
2022-09-22T06:19:03.873Z,15.23
2022-09-22T06:21:32.220Z,12.27
2022-09-22T06:24:00.674Z,12.07
2022-09-22T06:26:29.044Z,20.80
2022-09-22T06:28:57.946Z,14.53
2022-09-22T06:31:28.961Z,18.43
2022-09-22T06:33:57.754Z,14.63
2022-09-22T06:36:31.310Z,22.17
2022-09-22T06:39:02.533Z,18.07
2022-09-22T06:41:33.777Z,20.27
2022-09-22T06:44:05.548Z,19.10
2022-09-22T06:46:35.855Z,25.57
2022-09-22T06:49:04.169Z,28.03
2022-09-22T06:51:34.384Z,23.53
2022-09-22T06:54:05.136Z,33.53
2022-09-22T06:56:39.931Z,30.20
2022-09-22T06:59:11.126Z,23.50
2022-09-22T07:01:42.981Z,22.07
2022-09-22T07:04:12.444Z,24.33
2022-09-22T07:06:41.190Z,26.97
2022-09-22T07:09:10.433Z,26.30
2022-09-22T07:11:40.997Z,27.23
2022-09-22T07:14:10.367Z,25.47
2022-09-22T07:16:41.438Z,26.33
2022-09-22T07:19:10.574Z,21.17
2022-09-22T07:21:40.391Z,23.87
2022-09-22T07:24:09.342Z,19.60
2022-09-22T07:26:39.914Z,23.77
2022-09-22T07:29:11.753Z,20.40
2022-09-22T07:31:43.512Z,26.47
2022-09-22T07:34:13.639Z,21.70
2022-09-22T07:36:41.963Z,18.97
2022-09-22T07:39:11.531Z,15.13
2022-09-22T07:41:43.358Z,19.97
2022-09-22T07:44:31.314Z,19.13
2022-09-22T07:47:01.854Z,12.87
2022-09-22T07:49:30.835Z,15.30
2022-09-22T07:51:59.221Z,18.87
2022-09-22T07:54:28.526Z,18.93
2022-09-22T07:56:58.772Z,18.13
2022-09-22T07:59:28.845Z,15.00
2022-09-22T08:01:57.374Z,15.47
2022-09-22T08:04:31.953Z,12.83
2022-09-22T08:07:00.412Z,13.27
2022-09-22T08:09:31.836Z,15.57
2022-09-22T08:12:00.526Z,14.07
2022-09-22T08:14:29.852Z,11.30
2022-09-22T08:17:01.106Z,10.30
2022-09-22T08:19:32.167Z,11.83
2022-09-22T08:22:00.722Z,14.73
2022-09-22T08:24:29.853Z,9.87
2022-09-22T08:26:58.168Z,13.10
2022-09-22T08:29:26.888Z,7.20
2022-09-22T08:31:55.345Z,16.90
2022-09-22T08:34:24.168Z,13.10
2022-09-22T08:36:55.855Z,10.13
2022-09-22T08:39:24.358Z,10.07
2022-09-22T08:42:05.995Z,10.03
2022-09-22T08:44:41.438Z,15.67
2022-09-22T08:47:37.893Z,11.33
2022-09-22T08:50:37.694Z,10.17
2022-09-22T08:53:10.294Z,8.27
2022-09-22T08:55:43.234Z,11.53
2022-09-22T08:58:25.862Z,7.03
2022-09-22T09:01:02.960Z,9.30
2022-09-22T09:03:46.477Z,8.30
2022-09-22T09:06:22.951Z,6.53
2022-09-22T09:09:12.085Z,10.53
2022-09-22T09:11:58.200Z,8.53
2022-09-22T09:14:52.930Z,11.03
2022-09-22T09:17:26.176Z,7.07
2022-09-22T09:19:58.341Z,8.33
2022-09-22T09:22:32.186Z,9.07
2022-09-22T09:25:23.920Z,11.30
2022-09-22T09:27:57.736Z,9.57
2022-09-22T09:30:26.411Z,6.63
2022-09-22T09:32:59.279Z,7.37
2022-09-22T09:35:41.278Z,6.33
2022-09-22T09:38:14.810Z,5.07
2022-09-22T09:40:46.317Z,15.13
2022-09-22T09:43:14.740Z,5.43
2022-09-22T09:45:57.375Z,9.13
2022-09-22T09:48:36.075Z,7.30
2022-09-22T09:51:05.733Z,3.50
2022-09-22T09:53:41.030Z,7.07
2022-09-22T09:56:23.642Z,8.37
2022-09-22T09:59:16.855Z,6.83
2022-09-22T10:01:47.478Z,5.53
2022-09-22T10:04:23.955Z,5.23
2022-09-22T10:06:52.747Z,4.30
2022-09-22T10:09:28.949Z,3.80
2022-09-22T10:12:04.047Z,5.40
2022-09-22T10:14:34.473Z,5.30
2022-09-22T10:17:04.076Z,3.43
2022-09-22T10:19:34.778Z,5.40
2022-09-22T10:22:23.557Z,4.77
2022-09-22T10:25:01.445Z,3.90
2022-09-22T10:27:32.894Z,6.47
2022-09-22T10:30:22.345Z,3.30
2022-09-22T10:33:18.229Z,5.90
2022-09-22T10:35:55.307Z,6.47
2022-09-22T10:38:27.180Z,2.40
2022-09-22T10:40:58.325Z,7.03
2022-09-22T10:43:42.679Z,6.97
2022-09-22T10:47:01.766Z,2.50
2022-09-22T10:49:51.351Z,3.67
2022-09-22T10:52:26.347Z,4.77
2022-09-22T10:55:10.971Z,4.20
2022-09-22T10:58:02.402Z,3.73
2022-09-22T11:00:38.270Z,3.17
2022-09-22T11:03:43.776Z,5.00
2022-09-22T11:06:44.642Z,3.60
2022-09-22T11:09:38.860Z,4.17
2022-09-22T11:12:21.082Z,3.77
2022-09-22T11:15:03.641Z,2.83
2022-09-22T11:17:55.514Z,1.70
2022-09-22T11:20:36.844Z,2.07
2022-09-22T11:23:45.839Z,2.50
2022-09-22T11:26:48.843Z,3.57
2022-09-22T11:29:47.348Z,2.67
2022-09-22T11:32:40.632Z,3.30
2022-09-22T11:35:42.051Z,1.33
2022-09-22T11:38:30.436Z,4.37
2022-09-22T11:41:19.355Z,1.13
2022-09-22T11:44:10.894Z,4.10
2022-09-22T11:46:55.243Z,4.63
2022-09-22T11:49:38.283Z,1.00
2022-09-22T11:52:21.851Z,2.60
2022-09-22T11:55:12.286Z,2.27
2022-09-22T11:57:44.365Z,3.37
2022-09-22T12:00:17.601Z,4.37
2022-09-22T12:02:54.522Z,3.07
2022-09-22T12:05:30.318Z,2.30
2022-09-22T12:08:04.091Z,3.50
2022-09-22T12:10:35.987Z,3.47
2022-09-22T12:13:08.713Z,3.17
2022-09-22T12:15:43.528Z,2.20
2022-09-22T12:18:18.158Z,2.80
2022-09-22T12:21:00.395Z,3.07
2022-09-22T12:23:41.297Z,1.33
2022-09-22T12:26:11.617Z,2.30
2022-09-22T12:28:45.222Z,2.50
2022-09-22T12:31:15.787Z,1.83
2022-09-22T12:33:51.356Z,2.97
2022-09-22T12:36:30.239Z,5.53
2022-09-22T12:39:10.372Z,3.10
2022-09-22T12:41:50.541Z,2.70
2022-09-22T12:44:22.959Z,2.20
2022-09-22T12:46:52.245Z,5.10
2022-09-22T12:49:23.544Z,1.50
2022-09-22T12:51:53.614Z,3.13
2022-09-22T12:54:51.494Z,1.67
2022-09-22T12:57:30.094Z,3.37
2022-09-22T13:00:20.821Z,2.47
2022-09-22T13:02:50.250Z,3.77
2022-09-22T13:05:48.918Z,1.47
2022-09-22T13:08:27.108Z,3.97
2022-09-22T13:10:58.575Z,4.93
2022-09-22T13:13:43.938Z,2.83
2022-09-22T13:16:36.442Z,2.13
2022-09-22T13:19:11.212Z,1.63
2022-09-22T13:21:40.413Z,1.37
2022-09-22T13:24:26.558Z,3.17
2022-09-22T13:27:05.925Z,5.03
2022-09-22T13:29:34.570Z,4.50
2022-09-22T13:32:18.503Z,5.60
2022-09-22T13:34:47.861Z,1.53
2022-09-22T13:37:21.488Z,2.23
2022-09-22T13:39:53.959Z,2.33
2022-09-22T13:42:32.531Z,2.67
2022-09-22T13:45:06.461Z,2.63
2022-09-22T13:47:36.108Z,2.97
2022-09-22T13:50:07.990Z,2.65
2022-09-22T13:52:39.104Z,2.13
2022-09-22T13:55:11.806Z,2.17
2022-09-22T13:57:41.530Z,2.63
2022-09-22T14:00:24.564Z,2.03
2022-09-22T14:02:56.042Z,2.47
2022-09-22T14:05:28.196Z,3.10
2022-09-22T14:08:12.082Z,1.30
2022-09-22T14:10:47.742Z,1.30
2022-09-22T14:14:04.160Z,2.80
2022-09-22T14:16:48.462Z,2.30
2022-09-22T14:19:22.863Z,3.60
2022-09-22T14:21:54.720Z,2.63
2022-09-22T14:24:23.507Z,2.83
2022-09-22T14:26:57.137Z,3.23
2022-09-22T14:29:31.731Z,2.37
2022-09-22T14:32:10.620Z,2.53
2022-09-22T14:34:42.097Z,1.77
2022-09-22T14:37:20.557Z,3.07
2022-09-22T14:39:53.107Z,2.30
2022-09-22T14:42:29.394Z,2.03
2022-09-22T14:45:18.568Z,1.43
2022-09-22T14:47:47.160Z,1.57
2022-09-22T14:50:18.928Z,1.93
2022-09-22T14:52:58.643Z,0.70
2022-09-22T14:55:35.985Z,3.47
2022-09-22T14:58:14.367Z,0.77
2022-09-22T15:01:10.247Z,1.93
2022-09-22T15:03:39.921Z,1.43
2022-09-22T15:06:11.196Z,1.63
2022-09-22T15:08:41.226Z,1.93
2022-09-22T15:11:10.560Z,3.40
2022-09-22T15:13:41.910Z,1.40
2022-09-22T15:16:38.230Z,3.50
2022-09-22T15:19:11.149Z,2.80
2022-09-22T15:21:46.189Z,4.53
2022-09-22T15:24:15.856Z,1.30
2022-09-22T15:26:44.951Z,2.00
2022-09-22T15:29:17.498Z,4.07
2022-09-22T15:31:46.134Z,3.30
2022-09-22T15:34:16.535Z,1.23
2022-09-22T15:36:48.906Z,4.87
2022-09-22T15:39:21.782Z,3.13
2022-09-22T15:41:50.554Z,1.70
2022-09-22T15:44:20.731Z,1.63
2022-09-22T15:46:52.613Z,1.70
2022-09-22T15:49:25.014Z,2.10
2022-09-22T15:51:54.698Z,2.60
2022-09-22T15:54:26.352Z,2.63
2022-09-22T15:56:56.914Z,2.47
2022-09-22T15:59:29.306Z,1.83
2022-09-22T16:01:59.752Z,2.73
2022-09-22T16:04:30.204Z,2.47
2022-09-22T16:07:04.111Z,2.97
2022-09-22T16:09:32.865Z,3.17
2022-09-22T16:12:01.830Z,1.53
2022-09-22T16:14:31.654Z,1.60
2022-09-22T16:17:00.407Z,1.90
2022-09-22T16:19:32.085Z,12.43
2022-09-22T16:22:00.611Z,4.33
2022-09-22T16:24:29.165Z,5.17
2022-09-22T16:26:58.026Z,5.90
2022-09-22T16:29:26.579Z,5.40
2022-09-22T16:31:56.432Z,4.57
2022-09-22T16:34:25.275Z,4.43
2022-09-22T16:36:53.836Z,2.43
2022-09-22T16:39:22.393Z,3.20
2022-09-22T16:41:50.909Z,4.43
2022-09-22T16:44:19.364Z,3.67
2022-09-22T16:46:47.820Z,3.90
2022-09-22T16:49:20.161Z,4.30
2022-09-22T16:51:50.661Z,3.30
2022-09-22T16:54:20.508Z,2.23
2022-09-22T16:56:50.662Z,6.63
2022-09-22T16:59:21.352Z,6.37
2022-09-22T17:01:50.564Z,3.37
2022-09-22T17:04:21.144Z,3.53
2022-09-22T17:06:50.719Z,4.97
2022-09-22T17:09:19.719Z,3.20
2022-09-22T17:11:50.211Z,5.83
2022-09-22T17:14:22.242Z,3.17
2022-09-22T17:16:53.743Z,4.97
2022-09-22T17:19:27.877Z,5.33
2022-09-22T17:21:57.765Z,3.53
2022-09-22T17:24:27.497Z,8.47
2022-09-22T17:26:57.838Z,3.90
2022-09-22T17:29:28.121Z,6.00
2022-09-22T17:31:59.469Z,5.73
2022-09-22T17:34:31.583Z,9.50
2022-09-22T17:37:00.800Z,12.00
2022-09-22T17:39:30.665Z,9.80
2022-09-22T17:41:59.150Z,14.10
2022-09-22T17:44:28.912Z,9.20
2022-09-22T17:47:15.160Z,6.27
2022-09-22T17:50:02.521Z,6.80
2022-09-22T17:52:48.494Z,5.90
2022-09-22T17:55:22.422Z,10.90
2022-09-22T17:57:52.790Z,9.67
2022-09-22T18:00:24.292Z,8.97
2022-09-22T18:02:54.483Z,7.30
2022-09-22T18:05:27.014Z,9.53
2022-09-22T18:07:57.906Z,13.47
2022-09-22T18:10:34.281Z,9.03
2022-09-22T18:13:04.403Z,8.67
2022-09-22T18:15:32.964Z,6.73
2022-09-22T18:18:01.455Z,10.40
2022-09-22T18:20:32.497Z,9.33
2022-09-22T18:23:02.446Z,13.07
2022-09-22T18:25:32.404Z,7.07
2022-09-22T18:28:01.024Z,12.00
2022-09-22T18:30:29.509Z,8.47
2022-09-22T18:33:00.023Z,8.50
2022-09-22T18:35:29.002Z,9.73
2022-09-22T18:37:58.834Z,14.70
2022-09-22T18:40:29.643Z,13.77
2022-09-22T18:42:58.118Z,10.40
2022-09-22T18:45:27.174Z,8.87
2022-09-22T18:47:59.506Z,11.67
2022-09-22T18:50:35.887Z,10.77
2022-09-22T18:53:05.707Z,11.20
2022-09-22T18:55:34.236Z,12.37
2022-09-22T18:58:02.979Z,12.00
2022-09-22T19:00:31.755Z,12.03
2022-09-22T19:03:00.615Z,11.50
2022-09-22T19:05:29.309Z,15.23
2022-09-22T19:07:59.496Z,9.37
2022-09-22T19:10:29.382Z,11.67
2022-09-22T19:12:57.916Z,13.00
2022-09-22T19:15:29.666Z,11.80
2022-09-22T19:17:58.243Z,10.93
2022-09-22T19:20:28.524Z,9.33
2022-09-22T19:22:57.628Z,9.20
2022-09-22T19:25:26.768Z,12.27
2022-09-22T19:27:57.436Z,10.13
2022-09-22T19:30:29.667Z,13.20
2022-09-22T19:33:00.426Z,11.03
2022-09-22T19:35:30.203Z,15.97
2022-09-22T19:37:59.767Z,13.33
2022-09-22T19:40:28.278Z,13.73
2022-09-22T19:43:01.934Z,12.00
2022-09-22T19:45:30.787Z,19.93
2022-09-22T19:47:59.321Z,14.33
2022-09-22T19:50:27.759Z,15.47
2022-09-22T19:52:56.148Z,15.80
2022-09-22T19:55:24.863Z,16.60
2022-09-22T19:57:54.349Z,12.30
2022-09-22T20:00:26.914Z,19.30
2022-09-22T20:02:58.818Z,16.70
2022-09-22T20:05:29.536Z,15.20
2022-09-22T20:07:57.888Z,14.73
2022-09-22T20:10:26.340Z,19.27
2022-09-22T20:12:54.911Z,17.70
2022-09-22T20:15:25.611Z,17.20
2022-09-22T20:17:55.340Z,17.53
2022-09-22T20:20:26.143Z,18.27
2022-09-22T20:23:00.369Z,24.77
2022-09-22T20:25:33.056Z,22.47
2022-09-22T20:28:01.753Z,24.00
2022-09-22T20:30:31.729Z,20.87
2022-09-22T20:33:00.278Z,19.73
2022-09-22T20:35:28.879Z,20.77
2022-09-22T20:37:59.472Z,21.80
2022-09-22T20:40:29.202Z,19.83
2022-09-22T20:42:58.224Z,14.80
2022-09-22T20:45:27.444Z,14.97
2022-09-22T20:47:57.352Z,14.60
2022-09-22T20:50:25.907Z,9.43
2022-09-22T20:52:55.543Z,14.03
2022-09-22T20:55:24.043Z,11.13
2022-09-22T20:57:52.744Z,8.90
2022-09-22T21:00:22.367Z,10.57
2022-09-22T21:02:51.410Z,10.80
2022-09-22T21:05:21.836Z,13.13
2022-09-22T21:08:10.770Z,11.90
2022-09-22T21:10:38.528Z,14.00
2022-09-22T21:13:07.046Z,11.37
2022-09-22T21:15:35.612Z,15.17
2022-09-22T21:18:04.062Z,8.40
2022-09-22T21:20:33.880Z,10.53
2022-09-22T21:23:02.864Z,7.87
2022-09-22T21:25:31.543Z,11.00
2022-09-22T21:27:59.943Z,10.43
2022-09-22T21:30:28.304Z,11.53
2022-09-22T21:32:56.760Z,8.03
2022-09-22T21:35:25.218Z,8.43
2022-09-22T21:37:57.525Z,17.93
2022-09-22T21:40:26.136Z,12.20
2022-09-22T21:42:54.609Z,6.03
2022-09-22T21:45:23.007Z,7.17
2022-09-22T21:47:52.114Z,9.90
2022-09-22T21:50:20.637Z,8.83
2022-09-22T21:52:48.980Z,7.20
2022-09-22T21:55:18.860Z,13.93
2022-09-22T21:57:47.316Z,6.97
2022-09-22T22:00:15.916Z,7.90
2022-09-22T22:03:02.027Z,7.17
2022-09-22T22:05:31.098Z,11.57
2022-09-22T22:07:59.660Z,8.20
2022-09-22T22:10:33.067Z,7.67
2022-09-22T22:13:02.074Z,7.20
2022-09-22T22:15:34.882Z,10.27
2022-09-22T22:18:03.297Z,11.07
2022-09-22T22:20:33.291Z,9.30
2022-09-22T22:23:01.693Z,7.37
2022-09-22T22:25:36.449Z,9.43
2022-09-22T22:28:04.793Z,9.13
2022-09-22T22:30:33.414Z,11.57
2022-09-22T22:33:02.031Z,8.30
2022-09-22T22:35:30.554Z,6.33
2022-09-22T22:37:58.979Z,8.30
2022-09-22T22:40:27.452Z,6.47
2022-09-22T22:42:59.258Z,9.13
2022-09-22T22:45:27.806Z,10.20
2022-09-22T22:47:56.269Z,8.77
2022-09-22T22:50:25.784Z,6.87
2022-09-22T22:52:54.492Z,12.90
2022-09-22T22:55:22.919Z,6.80
2022-09-22T22:57:51.725Z,12.33
2022-09-22T23:00:22.298Z,15.73
2022-09-22T23:02:52.247Z,12.67
2022-09-22T23:05:20.943Z,20.60
2022-09-22T23:07:49.309Z,20.20
2022-09-22T23:10:19.075Z,12.90
2022-09-22T23:12:47.834Z,14.27
2022-09-22T23:15:16.615Z,8.47
2022-09-22T23:17:51.152Z,9.13
2022-09-22T23:20:19.638Z,6.53
2022-09-22T23:22:49.257Z,10.27
2022-09-22T23:25:17.912Z,15.40
2022-09-22T23:27:48.426Z,5.60
2022-09-22T23:30:17.526Z,10.13
2022-09-22T23:32:45.923Z,6.33
2022-09-22T23:35:15.756Z,4.53
2022-09-22T23:37:45.974Z,4.67
2022-09-22T23:40:14.424Z,5.20
2022-09-22T23:42:44.493Z,5.07
2022-09-22T23:45:13.636Z,8.23
2022-09-22T23:47:44.104Z,6.67
2022-09-22T23:50:12.638Z,7.90
2022-09-22T23:52:42.771Z,4.00
2022-09-22T23:55:11.198Z,7.57
2022-09-22T23:57:39.541Z,5.47
